Terminal Aerodrome Forecast
Issued by NWS Charleston, WV

Current Version | Previous Version | Text Only | Print | Product List | Glossary Off
Versions: 1 2 3 4 5 6 7 8 9 10 11 12 13 14 15 16 17 18 19 20 21 22 23 24

000
FTUS41 KRLX 282300
TAFEKN
TAF
KEKN 282333Z 2900/2924 00000KT P6SM SKC
     FM290300 00000KT 4SM BR SKC
     FM290500 00000KT 1SM BR SKC
     FM290600 00000KT 1/4SM FG VV001
     FM291300 00000KT 4SM BR BKN001
     FM291330 00000KT P6SM FEW250=

USA.gov is the U.S. government's official web portal to all federal, state and local government web resources and services.